Nautilus Survey — LIXR — position and weather

sailwx.info

Track history (hours):
 
Tides and Currents Weather Stations Pressure Air Temp Water Temp Dewpoint Dewpoint Depression Visibility Wind Speed Wind Dir Waves Ship Positions

Nautilus Survey

Last reported at 2014-Oct-20 16:04 UTC. Time now 2014-Oct-21 05:37 UTC.
Position N 66°12' E 012°26'.

Length 22 m; draft 2 m.

Type: Dredging. MMSI: 259464000.

Date/timePositionNaut miles runAvg speedWind from/ knotsBaromVisibWave heightAir tempDewpointWater temp
2014-Oct-20 16:04N 66°12' E 012°26'5 9.3
2014-Oct-20 15:33N 66°17' E 012°24'6 6.5
2014-Oct-20 14:33N 66°22' E 012°33'1 0.6
2014-Oct-20 13:33N 66°21' E 012°32'0 0.0
2014-Oct-20 12:33N 66°21' E 012°32'0 0.1
2014-Oct-20 11:33N 66°21' E 012°32'0 0.0
2014-Oct-20 10:33N 66°21' E 012°32'0 0.0
2014-Oct-20 09:33N 66°21' E 012°32'4 4.0
2014-Oct-20 08:34N 66°22' E 012°23'3 2.6
2014-Oct-20 07:34N 66°20' E 012°23'14 0.4
2014-Oct-18 18:24N 66°22' E 012°57'  
2014-Oct-15 16:29N 66°30' E 012°59'9 9.7
2014-Oct-15 15:30N 66°21' E 012°59'90 2.6
2014-Oct-14 04:29N 64°58' E 011°34'9 9.5
2014-Oct-14 03:34N 64°53' E 011°17'  
Track history (hours):
 
Tides and Currents Weather Stations Pressure Air Temp Water Temp Dewpoint Dewpoint Depression Visibility Wind Speed Wind Dir Waves Ship Positions

Nautilus Survey

Last reported at 2014-Oct-20 16:04 UTC. Time now 2014-Oct-21 05:37 UTC.
Position N 66°12' E 012°26'.

Length 22 m; draft 2 m.

Type: Dredging. MMSI: 259464000.

Date/timePositionNaut miles runAvg speedWind from/ knotsBaromVisibWave heightAir tempDewpointWater temp
2014-Oct-20 16:04N 66°12' E 012°26'5 9.3
2014-Oct-20 15:33N 66°17' E 012°24'6 6.5
2014-Oct-20 14:33N 66°22' E 012°33'1 0.6
2014-Oct-20 13:33N 66°21' E 012°32'0 0.0
2014-Oct-20 12:33N 66°21' E 012°32'0 0.1
2014-Oct-20 11:33N 66°21' E 012°32'0 0.0
2014-Oct-20 10:33N 66°21' E 012°32'0 0.0
2014-Oct-20 09:33N 66°21' E 012°32'4 4.0
2014-Oct-20 08:34N 66°22' E 012°23'3 2.6
2014-Oct-20 07:34N 66°20' E 012°23'14 0.4
2014-Oct-18 18:24N 66°22' E 012°57'  
2014-Oct-15 16:29N 66°30' E 012°59'9 9.7
2014-Oct-15 15:30N 66°21' E 012°59'90 2.6
2014-Oct-14 04:29N 64°58' E 011°34'9 9.5
2014-Oct-14 03:34N 64°53' E 011°17'  

Dump ship's entire track history